Houston, Texas
Current Conditions -  °F | °C
As of 12:55 AM on Thursday 27 Nov 2014 (Local Time) from KMCJ Reporting Station
Clear Clear  
Wind Chill: 55°   Ceiling: Unl
Heat Index: 55°   Visibility: 10mi
Dew Point: 45°   Wind: 3mph
Humidity: 67%   Direction: 320°NW
Pressure: 30.31"   Gusts: NA
Location:  29.76°N, 95.37°W
Report Text: KMCJ 270655Z AUTO 32003KT 10SM CLR 13/07 A3031 RMK AO1
Loading
Personal Weather Stations






























Interactive Weather Map New forecast layout! Learn more

10-Day Weather Forecast

Advertisements
Track Severe Weather on mobile